createdAt,value
2023-04-15T00:02:18.430Z,3.88
2023-04-15T00:04:48.462Z,4.40
2023-04-15T00:07:16.352Z,4.50
2023-04-15T00:09:44.686Z,3.92
2023-04-15T00:12:13.274Z,4.28
2023-04-15T00:14:40.991Z,4.55
2023-04-15T00:17:08.784Z,3.65
2023-04-15T00:19:36.820Z,4.28
2023-04-15T00:22:06.197Z,3.80
2023-04-15T00:24:33.991Z,4.45
2023-04-15T00:27:01.914Z,3.80
2023-04-15T00:29:30.487Z,3.35
2023-04-15T00:31:58.483Z,4.00
2023-04-15T00:34:26.219Z,4.25
2023-04-15T00:36:53.979Z,3.50
2023-04-15T00:39:23.832Z,3.80
2023-04-15T00:41:51.803Z,4.07
2023-04-15T00:44:20.055Z,3.80
2023-04-15T00:46:48.669Z,4.18
2023-04-15T00:49:16.395Z,3.92
2023-04-15T00:51:44.852Z,3.63
2023-04-15T00:54:12.867Z,3.50
2023-04-15T00:56:42.113Z,3.95
2023-04-15T00:59:10.298Z,3.20
2023-04-15T01:01:38.495Z,4.30
2023-04-15T01:04:06.944Z,3.55
2023-04-15T01:06:34.822Z,3.75
2023-04-15T01:09:03.422Z,3.67
2023-04-15T01:11:34.288Z,4.20
2023-04-15T01:14:04.254Z,3.75
2023-04-15T01:16:32.590Z,3.60
2023-04-15T01:19:00.656Z,3.53
2023-04-15T01:21:29.071Z,3.38
2023-04-15T01:23:58.404Z,3.80
2023-04-15T01:26:28.323Z,4.20
2023-04-15T01:28:56.370Z,4.53
2023-04-15T01:31:24.177Z,3.80
2023-04-15T01:33:51.990Z,4.00
2023-04-15T01:36:19.759Z,4.10
2023-04-15T01:38:47.979Z,4.30
2023-04-15T01:41:15.761Z,3.92
2023-04-15T01:43:44.793Z,4.00
2023-04-15T01:46:12.779Z,3.97
2023-04-15T01:48:40.516Z,3.72
2023-04-15T01:51:08.283Z,3.30
2023-04-15T01:53:35.994Z,4.18
2023-04-15T01:56:03.701Z,3.75
2023-04-15T01:58:31.485Z,3.13
2023-04-15T02:01:00.668Z,4.00
2023-04-15T02:03:30.021Z,3.70
2023-04-15T02:05:57.838Z,3.58
2023-04-15T02:08:25.605Z,3.60
2023-04-15T02:10:53.508Z,3.83
2023-04-15T02:13:21.231Z,3.15
2023-04-15T02:15:49.529Z,3.50
2023-04-15T02:18:18.606Z,3.60
2023-04-15T02:20:47.151Z,3.85
2023-04-15T02:23:15.209Z,3.70
2023-04-15T02:25:42.901Z,3.67
2023-04-15T02:28:21.329Z,3.72
2023-04-15T02:30:50.830Z,3.92
2023-04-15T02:33:20.206Z,3.63
2023-04-15T02:35:47.948Z,3.25
2023-04-15T02:38:17.849Z,3.50
2023-04-15T02:40:46.194Z,3.85
2023-04-15T02:43:13.815Z,3.75
2023-04-15T02:45:43.509Z,3.80
2023-04-15T02:48:11.593Z,3.20
2023-04-15T02:50:41.049Z,3.33
2023-04-15T02:53:08.845Z,3.88
2023-04-15T02:55:37.005Z,3.50
2023-04-15T02:58:04.746Z,3.60
2023-04-15T03:00:32.466Z,3.25
2023-04-15T03:03:05.702Z,3.55
2023-04-15T03:05:33.631Z,3.60
2023-04-15T03:08:03.200Z,3.30
2023-04-15T03:10:30.932Z,3.85
2023-04-15T03:12:58.577Z,3.50
2023-04-15T03:15:27.130Z,3.30
2023-04-15T03:17:54.879Z,3.50
2023-04-15T03:20:22.760Z,3.40
2023-04-15T03:22:50.480Z,3.03
2023-04-15T03:25:19.537Z,3.85
2023-04-15T03:27:47.261Z,3.35
2023-04-15T03:30:15.027Z,4.50
2023-04-15T03:32:42.983Z,3.95
2023-04-15T03:35:10.971Z,2.90
2023-04-15T03:37:38.634Z,3.65
2023-04-15T03:40:07.639Z,3.22
2023-04-15T03:42:36.733Z,3.38
2023-04-15T03:45:04.836Z,3.10
2023-04-15T03:47:32.605Z,3.25
2023-04-15T03:50:00.406Z,4.40
2023-04-15T03:52:28.035Z,3.05
2023-04-15T03:54:56.048Z,3.05
2023-04-15T03:57:23.726Z,3.30
2023-04-15T03:59:52.792Z,3.42
2023-04-15T04:02:20.685Z,3.63
2023-04-15T04:04:48.526Z,3.80
2023-04-15T04:07:17.482Z,2.67
2023-04-15T04:09:47.043Z,3.28
2023-04-15T04:12:15.066Z,3.17
2023-04-15T04:14:42.770Z,2.80
2023-04-15T04:17:11.946Z,3.08
2023-04-15T04:19:39.650Z,3.22
2023-04-15T04:22:07.530Z,3.40
2023-04-15T04:24:35.208Z,3.20
2023-04-15T04:27:03.030Z,3.40
2023-04-15T04:29:30.772Z,3.63
2023-04-15T04:31:58.520Z,3.03
2023-04-15T04:34:27.595Z,2.88
2023-04-15T04:36:55.199Z,3.40
2023-04-15T04:39:22.943Z,3.42
2023-04-15T04:41:52.160Z,3.17
2023-04-15T04:44:19.845Z,3.30
2023-04-15T04:46:47.593Z,3.58
2023-04-15T04:49:15.480Z,3.25
2023-04-15T04:51:44.788Z,2.72
2023-04-15T04:54:12.451Z,2.95
2023-04-15T04:56:40.350Z,3.40
2023-04-15T04:59:09.371Z,3.25
2023-04-15T05:01:37.351Z,2.75
2023-04-15T05:04:05.670Z,3.55
2023-04-15T05:06:38.446Z,3.00
2023-04-15T05:09:07.495Z,3.38
2023-04-15T05:11:35.271Z,3.28
2023-04-15T05:14:02.996Z,4.47
2023-04-15T05:16:30.705Z,2.90
2023-04-15T05:18:58.342Z,2.85
2023-04-15T05:21:26.180Z,3.20
2023-04-15T05:23:53.897Z,3.10
2023-04-15T05:26:24.254Z,3.67
2023-04-15T05:28:52.017Z,3.47
2023-04-15T05:31:19.715Z,3.55
2023-04-15T05:33:47.437Z,3.70
2023-04-15T05:36:15.123Z,3.30
2023-04-15T05:38:42.751Z,3.70
2023-04-15T05:41:10.461Z,3.35
2023-04-15T05:43:39.518Z,3.42
2023-04-15T05:46:07.270Z,3.10
2023-04-15T05:48:35.048Z,3.00
2023-04-15T05:51:02.812Z,3.20
2023-04-15T05:53:30.492Z,4.20
2023-04-15T05:55:58.140Z,3.33
2023-04-15T05:58:26.056Z,3.33
2023-04-15T06:00:55.160Z,3.45
2023-04-15T06:03:23.005Z,3.10
2023-04-15T06:05:50.936Z,3.78
2023-04-15T06:08:18.959Z,3.58
2023-04-15T06:10:46.808Z,3.75
2023-04-15T06:13:14.576Z,3.78
2023-04-15T06:15:42.280Z,3.35
2023-04-15T06:18:11.766Z,4.13
2023-04-15T06:20:39.755Z,4.22
2023-04-15T06:23:07.517Z,3.60
2023-04-15T06:25:35.445Z,3.45
2023-04-15T06:28:03.157Z,3.95
2023-04-15T06:30:30.895Z,3.70
2023-04-15T06:32:58.892Z,4.10
2023-04-15T06:35:28.592Z,3.80
2023-04-15T06:37:56.704Z,4.85
2023-04-15T06:40:24.379Z,4.30
2023-04-15T06:42:52.070Z,4.05
2023-04-15T06:45:19.696Z,4.20
2023-04-15T06:47:47.403Z,3.72
2023-04-15T06:50:15.100Z,3.75
2023-04-15T06:52:44.228Z,3.72
2023-04-15T06:55:11.991Z,4.20
2023-04-15T06:57:39.676Z,4.57
2023-04-15T07:00:08.620Z,5.00
2023-04-15T07:02:36.879Z,4.90
2023-04-15T07:05:05.725Z,4.82
2023-04-15T07:07:33.551Z,5.13
2023-04-15T07:10:03.422Z,5.60
2023-04-15T07:12:31.854Z,6.07
2023-04-15T07:15:00.068Z,5.68
2023-04-15T07:17:28.017Z,5.75
2023-04-15T07:19:55.775Z,5.20
2023-04-15T07:22:23.598Z,5.95
2023-04-15T07:24:51.402Z,5.20
2023-04-15T07:27:20.999Z,5.40
2023-04-15T07:29:49.228Z,5.30
2023-04-15T07:32:17.089Z,6.20
2023-04-15T07:34:45.609Z,5.40
2023-04-15T07:37:13.759Z,5.37
2023-04-15T07:39:41.818Z,4.50
2023-04-15T07:42:09.788Z,4.07
2023-04-15T07:44:38.904Z,5.20
2023-04-15T07:47:06.848Z,4.80
2023-04-15T07:49:35.008Z,5.33
2023-04-15T07:52:03.112Z,5.30
2023-04-15T07:54:30.939Z,5.30
2023-04-15T07:56:59.069Z,5.43
2023-04-15T07:59:27.986Z,5.83
2023-04-15T08:01:57.618Z,4.97
2023-04-15T08:04:27.765Z,4.90
2023-04-15T08:06:55.700Z,5.83
2023-04-15T08:09:23.411Z,4.50
2023-04-15T08:11:51.160Z,5.50
2023-04-15T08:14:19.187Z,4.67
2023-04-15T08:16:46.977Z,4.03
2023-04-15T08:19:16.173Z,4.20
2023-04-15T08:21:43.844Z,4.07
2023-04-15T08:24:12.460Z,4.57
2023-04-15T08:26:40.394Z,4.27
2023-04-15T08:29:14.417Z,4.90
2023-04-15T08:31:43.135Z,5.00
2023-04-15T08:34:10.914Z,4.60
2023-04-15T08:36:40.052Z,4.30
2023-04-15T08:39:08.205Z,4.70
2023-04-15T08:41:41.789Z,4.17
2023-04-15T08:44:10.057Z,4.33
2023-04-15T08:46:38.170Z,4.03
2023-04-15T08:49:07.180Z,3.87
2023-04-15T08:51:35.171Z,3.67
2023-04-15T08:54:05.615Z,4.00
2023-04-15T08:56:34.301Z,4.50
2023-04-15T08:59:02.862Z,3.57
2023-04-15T09:01:30.924Z,4.07
2023-04-15T09:04:00.543Z,3.93
2023-04-15T09:06:28.415Z,3.80
2023-04-15T09:08:56.309Z,3.93
2023-04-15T09:11:25.929Z,3.60
2023-04-15T09:13:53.922Z,4.83
2023-04-15T09:16:21.596Z,3.73
2023-04-15T09:18:49.960Z,3.13
2023-04-15T09:21:19.213Z,3.37
2023-04-15T09:23:57.256Z,3.53
2023-04-15T09:26:37.439Z,3.30
2023-04-15T09:29:07.465Z,3.70
2023-04-15T09:31:35.563Z,3.70
2023-04-15T09:34:03.957Z,4.10
2023-04-15T09:36:42.870Z,4.67
2023-04-15T09:39:10.625Z,3.63
2023-04-15T09:41:40.371Z,2.90
2023-04-15T09:44:08.531Z,3.03
2023-04-15T09:46:43.129Z,2.90
2023-04-15T09:49:11.530Z,3.70
2023-04-15T09:51:39.661Z,3.97
2023-04-15T09:54:07.421Z,3.00
2023-04-15T09:56:37.826Z,3.10
2023-04-15T09:59:07.415Z,3.10
2023-04-15T10:01:36.913Z,2.80
2023-04-15T10:04:06.464Z,2.70
2023-04-15T10:06:35.506Z,2.93
2023-04-15T10:09:03.438Z,2.40
2023-04-15T10:11:31.949Z,2.90
2023-04-15T10:14:00.522Z,2.80
2023-04-15T10:16:30.406Z,2.67
2023-04-15T10:18:59.432Z,2.70
2023-04-15T10:21:29.121Z,2.70
2023-04-15T10:23:57.264Z,2.80
2023-04-15T10:26:25.682Z,2.67
2023-04-15T10:28:54.816Z,3.10
2023-04-15T10:31:23.024Z,2.97
2023-04-15T10:33:53.580Z,2.73
2023-04-15T10:36:21.992Z,2.83
2023-04-15T10:38:49.863Z,3.20
2023-04-15T10:41:21.640Z,3.60
2023-04-15T10:43:51.643Z,3.40
2023-04-15T10:46:37.189Z,2.90
2023-04-15T10:49:11.245Z,3.63
2023-04-15T10:51:41.691Z,3.57
2023-04-15T10:54:11.195Z,3.93
2023-04-15T10:56:38.882Z,3.93
2023-04-15T10:59:07.487Z,3.60
2023-04-15T11:02:00.178Z,3.83
2023-04-15T11:04:54.707Z,3.03
2023-04-15T11:07:38.767Z,3.40
2023-04-15T11:10:51.384Z,3.40
2023-04-15T11:13:22.690Z,3.60
2023-04-15T11:15:51.945Z,3.37
2023-04-15T11:18:22.259Z,3.00
2023-04-15T11:20:54.515Z,3.57
2023-04-15T11:23:30.176Z,3.40
2023-04-15T11:25:58.260Z,3.23
2023-04-15T11:28:27.628Z,2.80
2023-04-15T11:30:56.669Z,3.47
2023-04-15T11:33:25.398Z,3.10
2023-04-15T11:35:55.431Z,3.40
2023-04-15T11:38:23.553Z,2.93
2023-04-15T11:40:52.677Z,2.97
2023-04-15T11:43:22.182Z,3.90
2023-04-15T11:45:53.207Z,3.70
2023-04-15T11:48:23.194Z,3.47
2023-04-15T11:50:56.960Z,3.20
2023-04-15T11:53:25.991Z,4.13
2023-04-15T11:55:55.020Z,3.90
2023-04-15T11:58:24.551Z,4.10
2023-04-15T12:00:54.454Z,3.30
2023-04-15T12:03:26.671Z,3.47
2023-04-15T12:06:16.733Z,3.30
2023-04-15T12:08:57.276Z,3.23
2023-04-15T12:11:33.862Z,3.30
2023-04-15T12:14:06.048Z,3.80
2023-04-15T12:16:37.188Z,3.07
2023-04-15T12:19:17.592Z,2.93
2023-04-15T12:21:48.988Z,3.47
2023-04-15T12:24:16.728Z,2.90
2023-04-15T12:26:46.495Z,3.13
2023-04-15T12:29:16.341Z,3.63
2023-04-15T12:31:51.739Z,3.87
2023-04-15T12:34:26.874Z,3.27
2023-04-15T12:36:56.442Z,3.50
2023-04-15T12:39:25.274Z,3.23
2023-04-15T12:41:53.488Z,3.20
2023-04-15T12:44:24.016Z,3.23
2023-04-15T12:46:52.804Z,4.47
2023-04-15T12:49:21.728Z,3.80
2023-04-15T12:51:50.737Z,4.40
2023-04-15T12:54:20.183Z,3.43
2023-04-15T12:56:48.737Z,3.90
2023-04-15T12:59:17.823Z,4.20
2023-04-15T13:01:45.869Z,4.27
2023-04-15T13:04:13.767Z,4.03
2023-04-15T13:06:41.669Z,3.77
2023-04-15T13:09:09.564Z,3.27
2023-04-15T13:11:38.834Z,3.90
2023-04-15T13:14:08.445Z,3.60
2023-04-15T13:16:36.622Z,2.97
2023-04-15T13:19:05.587Z,3.30
2023-04-15T13:21:36.236Z,3.10
2023-04-15T13:24:07.251Z,3.00
2023-04-15T13:26:36.079Z,2.60
2023-04-15T13:29:05.220Z,2.77
2023-04-15T13:31:33.041Z,2.53
2023-04-15T13:34:00.837Z,2.80
2023-04-15T13:36:28.534Z,3.10
2023-04-15T13:38:57.044Z,2.90
2023-04-15T13:41:24.827Z,3.37
2023-04-15T13:43:52.620Z,3.20
2023-04-15T13:46:21.985Z,2.70
2023-04-15T13:48:49.942Z,2.23
2023-04-15T13:51:17.760Z,1.90
2023-04-15T13:53:45.407Z,2.03
2023-04-15T13:56:13.137Z,2.03
2023-04-15T13:58:42.048Z,1.70
2023-04-15T14:01:09.849Z,1.90
2023-04-15T14:03:39.492Z,1.47
2023-04-15T14:06:07.544Z,1.87
2023-04-15T14:08:35.430Z,1.20
2023-04-15T14:11:03.249Z,1.67
2023-04-15T14:13:31.361Z,1.80
2023-04-15T14:15:59.312Z,1.50
2023-04-15T14:18:27.310Z,1.77
2023-04-15T14:20:56.424Z,1.20
2023-04-15T14:23:24.309Z,1.50
2023-04-15T14:25:52.797Z,1.10
2023-04-15T14:28:20.597Z,1.30
2023-04-15T14:30:48.537Z,1.50
2023-04-15T14:33:16.693Z,1.30
2023-04-15T14:35:44.502Z,2.13
2023-04-15T14:38:13.912Z,1.60
2023-04-15T14:40:42.259Z,1.60
2023-04-15T14:43:10.139Z,1.53
2023-04-15T14:45:41.866Z,2.00
2023-04-15T14:48:12.660Z,1.77
2023-04-15T14:50:41.019Z,1.57
2023-04-15T14:53:08.784Z,1.70
2023-04-15T14:55:37.950Z,1.57
2023-04-15T14:58:06.008Z,1.47
2023-04-15T15:00:33.851Z,1.80
2023-04-15T15:03:01.829Z,1.70
2023-04-15T15:05:29.845Z,1.90
2023-04-15T15:07:57.615Z,1.90
2023-04-15T15:10:33.087Z,1.70
2023-04-15T15:13:14.732Z,2.13
2023-04-15T15:15:42.826Z,1.83
2023-04-15T15:18:11.531Z,2.27
2023-04-15T15:20:39.438Z,1.73
2023-04-15T15:23:07.348Z,1.60
2023-04-15T15:25:35.186Z,1.70
2023-04-15T15:28:03.081Z,1.63
2023-04-15T15:30:32.288Z,2.00
2023-04-15T15:33:00.184Z,1.60
2023-04-15T15:35:28.185Z,2.23
2023-04-15T15:37:57.437Z,2.50
2023-04-15T15:40:25.302Z,2.20
2023-04-15T15:42:53.624Z,2.20
2023-04-15T15:45:21.406Z,1.83
2023-04-15T15:47:50.707Z,2.10
2023-04-15T15:50:18.564Z,2.77
2023-04-15T15:52:46.364Z,1.80
2023-04-15T15:55:14.111Z,2.70
2023-04-15T15:57:42.356Z,2.30
2023-04-15T16:00:12.768Z,2.47
2023-04-15T16:05:13.163Z,2.20
2023-04-15T16:07:41.260Z,1.87
2023-04-15T16:10:10.101Z,2.10
2023-04-15T16:12:37.858Z,2.30
2023-04-15T16:15:06.400Z,2.77
2023-04-15T16:17:34.237Z,2.67
2023-04-15T16:20:05.577Z,2.20
2023-04-15T16:22:36.262Z,2.10
2023-04-15T16:25:04.184Z,2.67
2023-04-15T16:27:32.217Z,2.10
2023-04-15T16:29:59.956Z,2.00
2023-04-15T16:32:27.774Z,2.33
2023-04-15T16:34:56.892Z,2.33
2023-04-15T16:37:24.607Z,2.10
2023-04-15T16:39:54.191Z,2.60
2023-04-15T16:42:21.996Z,2.73
2023-04-15T16:44:49.714Z,2.70
2023-04-15T16:47:17.435Z,2.80
2023-04-15T16:49:45.173Z,3.13
2023-04-15T16:52:12.942Z,2.70
2023-04-15T16:54:41.616Z,2.63
2023-04-15T16:57:10.842Z,3.20
2023-04-15T16:59:39.204Z,3.17
2023-04-15T17:02:07.196Z,3.83
2023-04-15T17:04:35.914Z,3.50
2023-04-15T17:07:04.107Z,3.17
2023-04-15T17:09:31.812Z,3.28
2023-04-15T17:11:59.611Z,3.10
2023-04-15T17:14:29.705Z,3.95
2023-04-15T17:16:57.503Z,3.67
2023-04-15T17:19:26.775Z,3.92
2023-04-15T17:21:55.161Z,5.60
2023-04-15T17:24:23.079Z,4.88
2023-04-15T17:26:50.910Z,3.20
2023-04-15T17:29:18.621Z,3.70
2023-04-15T17:31:47.798Z,2.95
2023-04-15T17:34:16.182Z,2.88
2023-04-15T17:36:44.025Z,3.55
2023-04-15T17:39:11.948Z,3.58
2023-04-15T17:41:39.646Z,3.92
2023-04-15T17:44:07.538Z,3.80
2023-04-15T17:46:35.442Z,5.32
2023-04-15T17:49:05.918Z,5.75
2023-04-15T17:51:33.868Z,4.13
2023-04-15T17:54:01.683Z,4.20
2023-04-15T17:56:29.630Z,3.05
2023-04-15T17:58:58.386Z,3.00
2023-04-15T18:01:26.437Z,3.42
2023-04-15T18:03:54.376Z,3.85
2023-04-15T18:06:23.749Z,3.97
2023-04-15T18:08:52.460Z,4.50
2023-04-15T18:11:20.424Z,2.95
2023-04-15T18:13:48.248Z,3.00
2023-04-15T18:16:16.073Z,8.00
2023-04-15T18:18:43.820Z,3.92
2023-04-15T18:21:13.617Z,3.20
2023-04-15T18:23:42.946Z,3.67
2023-04-15T18:26:10.785Z,3.60
2023-04-15T18:28:39.759Z,2.88
2023-04-15T18:31:07.823Z,2.50
2023-04-15T18:33:35.986Z,2.42
2023-04-15T18:36:03.797Z,2.85
2023-04-15T18:38:31.760Z,2.97
2023-04-15T18:41:00.852Z,3.20
2023-04-15T18:43:28.598Z,3.72
2023-04-15T18:45:56.504Z,2.83
2023-04-15T18:48:24.335Z,3.17
2023-04-15T18:50:53.962Z,2.70
2023-04-15T18:53:21.843Z,3.60
2023-04-15T18:55:49.683Z,3.40
2023-04-15T18:58:19.007Z,3.50
2023-04-15T19:00:46.814Z,3.38
2023-04-15T19:03:14.792Z,3.67
2023-04-15T19:05:42.557Z,4.28
2023-04-15T19:08:11.283Z,4.35
2023-04-15T19:10:39.152Z,4.15
2023-04-15T19:13:07.571Z,4.70
2023-04-15T19:15:36.697Z,4.35
2023-04-15T19:18:10.325Z,4.50
2023-04-15T19:20:39.971Z,4.50
2023-04-15T19:23:08.206Z,5.25
2023-04-15T19:25:35.955Z,4.57
2023-04-15T19:28:03.841Z,4.38
2023-04-15T19:30:33.061Z,5.20
2023-04-15T19:33:02.229Z,5.43
2023-04-15T19:35:30.014Z,5.30
2023-04-15T19:37:57.884Z,5.30
2023-04-15T19:40:25.946Z,5.65
2023-04-15T19:42:53.721Z,5.75
2023-04-15T19:45:21.438Z,5.15
2023-04-15T19:47:56.356Z,5.53
2023-04-15T19:50:27.577Z,5.45
2023-04-15T19:52:56.184Z,5.45
2023-04-15T19:55:26.876Z,5.63
2023-04-15T19:58:04.504Z,5.10
2023-04-15T20:00:55.065Z,5.45
2023-04-15T20:03:58.745Z,6.10
2023-04-15T20:06:28.482Z,6.03
2023-04-15T20:08:56.353Z,5.80
2023-04-15T20:12:45.606Z,6.10
2023-04-15T20:14:17.551Z,5.95
2023-04-15T20:16:45.446Z,6.13
2023-04-15T20:19:13.857Z,6.15
2023-04-15T20:21:43.053Z,7.05
2023-04-15T20:24:10.977Z,5.60
2023-04-15T20:26:38.842Z,6.07
2023-04-15T20:29:06.834Z,6.70
2023-04-15T20:31:34.909Z,6.70
2023-04-15T20:34:02.588Z,6.65
2023-04-15T20:36:31.710Z,7.40
2023-04-15T20:39:00.731Z,6.38
2023-04-15T20:41:28.361Z,6.38
2023-04-15T20:43:56.124Z,6.50
2023-04-15T20:46:25.819Z,6.82
2023-04-15T20:48:55.645Z,7.10
2023-04-15T20:51:23.387Z,6.88
2023-04-15T20:53:51.221Z,7.00
2023-04-15T20:56:20.424Z,6.72
2023-04-15T20:58:48.164Z,7.15
2023-04-15T21:01:16.044Z,7.15
2023-04-15T21:03:43.892Z,6.65
2023-04-15T21:06:11.717Z,7.05
2023-04-15T21:08:40.202Z,7.28
2023-04-15T21:11:07.948Z,7.82
2023-04-15T21:13:37.065Z,7.40
2023-04-15T21:16:05.132Z,7.40
2023-04-15T21:18:32.803Z,7.00
2023-04-15T21:21:01.860Z,7.35
2023-04-15T21:23:30.802Z,7.63
2023-04-15T21:25:59.856Z,7.80
2023-04-15T21:28:28.286Z,6.75
2023-04-15T21:30:57.817Z,7.60
2023-04-15T21:33:25.486Z,8.32
2023-04-15T21:35:54.229Z,7.18
2023-04-15T21:38:23.350Z,7.97
2023-04-15T21:40:51.302Z,8.45
2023-04-15T21:43:19.120Z,7.95
2023-04-15T21:46:21.033Z,8.18
2023-04-15T21:48:36.256Z,7.55
2023-04-15T21:51:04.396Z,9.02
2023-04-15T21:53:32.115Z,9.13
2023-04-15T21:55:59.803Z,7.85
2023-04-15T21:58:27.503Z,7.80
2023-04-15T22:00:57.468Z,7.97
2023-04-15T22:03:25.726Z,8.10
2023-04-15T22:05:54.958Z,7.50
2023-04-15T22:08:22.837Z,8.15
2023-04-15T22:10:50.690Z,8.90
2023-04-15T22:13:18.494Z,8.45
2023-04-15T22:15:46.319Z,8.38
2023-04-15T22:18:14.466Z,7.93
2023-04-15T22:20:42.219Z,8.02
2023-04-15T22:23:11.516Z,8.15
2023-04-15T22:25:39.272Z,8.65
2023-04-15T22:28:08.339Z,8.77
2023-04-15T22:30:38.885Z,9.55
2023-04-15T22:33:07.583Z,8.30
2023-04-15T22:35:36.200Z,9.10
2023-04-15T22:38:04.569Z,8.93
2023-04-15T22:40:33.726Z,10.25
2023-04-15T22:43:01.576Z,9.40
2023-04-15T22:45:29.397Z,9.70
2023-04-15T22:47:57.216Z,9.30
2023-04-15T22:50:24.995Z,8.63
2023-04-15T22:52:52.669Z,9.00
2023-04-15T22:55:20.731Z,8.40
2023-04-15T22:57:50.221Z,8.35
2023-04-15T23:00:18.185Z,8.88
2023-04-15T23:02:46.219Z,10.00
2023-04-15T23:05:14.181Z,8.98
2023-04-15T23:07:41.905Z,8.95
2023-04-15T23:10:10.566Z,8.57
2023-04-15T23:12:38.333Z,8.68
2023-04-15T23:15:08.795Z,9.52
2023-04-15T23:17:36.543Z,8.38
2023-04-15T23:20:04.360Z,8.75
2023-04-15T23:22:32.084Z,9.60
2023-04-15T23:24:59.801Z,9.45
2023-04-15T23:27:27.480Z,9.57
2023-04-15T23:29:55.375Z,10.20
2023-04-15T23:32:24.476Z,10.88
2023-04-15T23:34:52.246Z,11.70
2023-04-15T23:37:20.089Z,10.57
2023-04-15T23:39:47.774Z,10.85
2023-04-15T23:42:15.648Z,12.05
2023-04-15T23:44:43.310Z,10.65
2023-04-15T23:47:11.581Z,10.60
2023-04-15T23:49:40.930Z,10.68
2023-04-15T23:52:09.058Z,10.82
2023-04-15T23:54:36.744Z,10.00
2023-04-15T23:57:04.427Z,11.15
2023-04-15T23:59:32.128Z,11.60
